Aviation Digital Data Service (ADDS)

Output produced by METARs form (0428 UTC 26 May 2018)
found at http://www.aviationweather.gov/adds/metars/
 
FKKD 260400Z VRB02KT 9999 TS BKN013 FEW016CB 25/25 Q1009 NOSIG
TAF COR FKKD 252300Z 2600/2706 24003KT 9999 TS SCT013 FEW016CB 
     TEMPO 2600/2602 4000 -TSRA 
     TEMPO 2605/2606 3000 BR 
     BECMG 2605/2607 NSW BKN016 FEW020CB
       
FKKR 260400Z 28008KT CAVOK 27/22 Q1010 NOSIG
FKYS 260400Z /////KT 6000 R19/1400V1700D -DZ BKN006 21/21 Q1015 NOSIG
TAF FKYS 252300Z 2600/2624 VRB03KT BKN006 
     TEMPO 2603/2606 3000 BR 
     TEMPO 2605/2606 0800 FG 
     BECMG 2606/2608 BKN016